createdAt,value
2018-09-20T00:01:11.513Z,100404.73
2018-09-20T00:03:42.446Z,100407.55
2018-09-20T00:06:13.497Z,100399.30
2018-09-20T00:08:44.532Z,100399.04
2018-09-20T00:11:15.506Z,100408.11
2018-09-20T00:13:46.469Z,100400.05
2018-09-20T00:16:17.492Z,100401.83
2018-09-20T00:22:04.618Z,100397.34
2018-09-20T00:24:35.471Z,100394.95
2018-09-20T00:27:06.487Z,100394.44
2018-09-20T00:29:37.456Z,100401.26
2018-09-20T00:32:08.514Z,100392.61
2018-09-20T00:34:39.486Z,100394.15
2018-09-20T00:37:10.495Z,100395.27
2018-09-20T00:39:41.444Z,100390.47
2018-09-20T00:42:12.414Z,100388.58
2018-09-20T00:44:43.401Z,100391.52
2018-09-20T00:47:14.437Z,100388.55
2018-09-20T00:49:45.409Z,100387.21
2018-09-20T00:52:16.418Z,100389.17
2018-09-20T00:54:47.409Z,100388.95
2018-09-20T00:57:18.429Z,100387.91
2018-09-20T00:59:49.437Z,100384.65
2018-09-20T01:02:20.417Z,100390.86
2018-09-20T01:04:51.435Z,100391.32
2018-09-20T01:07:22.441Z,100389.83
2018-09-20T01:09:53.386Z,100390.75
2018-09-20T01:12:24.705Z,100397.30
2018-09-20T01:14:55.566Z,100398.27
2018-09-20T01:17:26.490Z,100388.66
2018-09-20T01:19:57.478Z,100391.84
2018-09-20T01:22:28.425Z,100389.45
2018-09-20T01:24:59.406Z,100387.42
2018-09-20T01:27:30.458Z,100399.19
2018-09-20T01:30:01.455Z,100389.27
2018-09-20T01:32:32.414Z,100397.34
2018-09-20T01:35:03.452Z,100398.25
2018-09-20T01:37:34.455Z,100405.09
2018-09-20T01:40:05.449Z,100395.05
2018-09-20T01:42:36.453Z,100391.14
2018-09-20T01:45:07.753Z,100393.98
2018-09-20T01:47:38.585Z,100388.45
2018-09-20T01:50:09.479Z,100385.41
2018-09-20T01:52:40.457Z,100388.58
2018-09-20T01:55:11.447Z,100385.43
2018-09-20T01:57:42.412Z,100391.27
2018-09-20T02:00:13.404Z,100387.53
2018-09-20T02:02:44.462Z,100389.42
2018-09-20T02:05:15.441Z,100391.95
2018-09-20T02:07:46.457Z,100393.97
2018-09-20T02:10:17.421Z,100396.98
2018-09-20T02:12:48.470Z,100391.18
2018-09-20T02:15:19.522Z,100394.89
2018-09-20T02:17:50.489Z,100394.36
2018-09-20T02:20:21.501Z,100394.26
2018-09-20T02:22:52.525Z,100393.36
2018-09-20T02:25:23.502Z,100392.87
2018-09-20T02:27:54.498Z,100390.03
2018-09-20T02:30:25.457Z,100392.16
2018-09-20T02:32:56.498Z,100394.55
2018-09-20T02:35:27.487Z,100388.05
2018-09-20T02:37:58.481Z,100381.51
2018-09-20T02:40:29.431Z,100390.13
2018-09-20T02:43:00.466Z,100382.66
2018-09-20T02:45:31.485Z,100391.08
2018-09-20T02:48:02.429Z,100392.30
2018-09-20T02:50:33.487Z,100395.52
2018-09-20T02:53:04.467Z,100397.38
2018-09-20T02:55:35.490Z,100400.06
2018-09-20T02:58:06.522Z,100396.03
2018-09-20T03:00:37.475Z,100396.98
2018-09-20T03:03:08.491Z,100397.65
2018-09-20T03:05:39.484Z,100386.31
2018-09-20T03:08:10.473Z,100391.02
2018-09-20T03:10:41.481Z,100385.97
2018-09-20T03:13:12.486Z,100380.30
2018-09-20T03:15:43.449Z,100391.50
2018-09-20T03:18:14.418Z,100397.19
2018-09-20T03:20:45.381Z,100396.59
2018-09-20T03:23:16.416Z,100392.16
2018-09-20T03:25:47.413Z,100391.43
2018-09-20T03:28:18.445Z,100394.95
2018-09-20T03:30:49.487Z,100403.86
2018-09-20T03:33:20.433Z,100395.97
2018-09-20T03:35:51.441Z,100396.13
2018-09-20T03:38:22.434Z,100398.31
2018-09-20T03:40:53.434Z,100400.83
2018-09-20T03:43:24.441Z,100401.86
2018-09-20T03:45:55.435Z,100404.92
2018-09-20T03:48:26.453Z,100409.23
2018-09-20T03:50:57.455Z,100408.39
2018-09-20T03:53:28.518Z,100413.91
2018-09-20T03:55:59.462Z,100414.40
2018-09-20T03:58:30.454Z,100415.77
2018-09-20T04:01:01.480Z,100413.73
2018-09-20T04:03:32.473Z,100412.30
2018-09-20T04:06:03.449Z,100413.34
2018-09-20T04:08:34.442Z,100418.99
2018-09-20T04:11:05.440Z,100411.47
2018-09-20T04:13:36.494Z,100410.52
2018-09-20T04:16:07.487Z,100414.49
2018-09-20T04:18:38.473Z,100415.45
2018-09-20T04:21:09.477Z,100411.62
2018-09-20T04:23:40.449Z,100420.69
2018-09-20T04:26:11.445Z,100416.80
2018-09-20T04:28:42.485Z,100417.96
2018-09-20T04:31:13.484Z,100419.19
2018-09-20T04:33:44.790Z,100418.88
2018-09-20T04:36:15.581Z,100419.36
2018-09-20T04:38:47.294Z,100423.39
2018-09-20T04:41:18.381Z,100419.41
2018-09-20T04:43:49.462Z,100417.03
2018-09-20T04:46:20.462Z,100426.59
2018-09-20T04:48:51.487Z,100420.41
2018-09-20T04:51:22.507Z,100427.09
2018-09-20T04:53:53.518Z,100428.74
2018-09-20T04:56:24.501Z,100428.61
2018-09-20T04:58:55.522Z,100432.45
2018-09-20T05:01:26.586Z,100432.95
2018-09-20T05:03:57.597Z,100431.64
2018-09-20T05:06:28.545Z,100428.62
2018-09-20T05:08:59.506Z,100432.80
2018-09-20T05:11:30.449Z,100438.30
2018-09-20T05:14:01.449Z,100434.28
2018-09-20T05:16:32.453Z,100432.45
2018-09-20T05:19:03.451Z,100424.73
2018-09-20T05:21:34.439Z,100424.59
2018-09-20T05:24:05.446Z,100431.28
2018-09-20T05:26:36.453Z,100431.64
2018-09-20T05:29:08.725Z,100435.65
2018-09-20T05:31:39.550Z,100442.84
2018-09-20T05:34:10.497Z,100438.13
2018-09-20T05:36:41.460Z,100444.48
2018-09-20T05:39:13.013Z,100442.48
2018-09-20T05:41:44.280Z,100444.00
2018-09-20T05:44:15.447Z,100436.82
2018-09-20T05:46:46.460Z,100444.35
2018-09-20T05:49:17.481Z,100435.80
2018-09-20T05:51:48.453Z,100440.31
2018-09-20T05:54:19.489Z,100439.50
2018-09-20T05:56:50.530Z,100439.98
2018-09-20T05:59:21.534Z,100441.00
2018-09-20T06:01:52.462Z,100444.63
2018-09-20T06:04:23.458Z,100442.17
2018-09-20T06:06:54.422Z,100448.01
2018-09-20T06:09:25.415Z,100446.14
2018-09-20T06:11:56.386Z,100445.51
2018-09-20T06:14:27.498Z,100447.61
2018-09-20T06:16:58.464Z,100455.07
2018-09-20T06:19:29.457Z,100457.95
2018-09-20T06:22:00.526Z,100447.45
2018-09-20T06:24:31.497Z,100451.48
2018-09-20T06:27:02.555Z,100448.53
2018-09-20T06:29:33.565Z,100455.19
2018-09-20T06:32:04.634Z,100459.86
2018-09-20T06:34:35.502Z,100460.06
2018-09-20T06:37:07.224Z,100461.39
2018-09-20T06:39:39.848Z,100462.93
2018-09-20T06:42:10.570Z,100457.47
2018-09-20T06:44:41.513Z,100459.95
2018-09-20T06:47:12.469Z,100452.77
2018-09-20T06:49:43.487Z,100447.73
2018-09-20T06:52:14.437Z,100452.09
2018-09-20T06:54:45.456Z,100448.58
2018-09-20T06:57:16.509Z,100445.42
2018-09-20T06:59:47.493Z,100444.69
2018-09-20T07:02:18.477Z,100447.78
2018-09-20T07:04:49.851Z,100455.83
2018-09-20T07:07:20.692Z,100452.72
2018-09-20T07:09:52.500Z,100455.58
2018-09-20T07:12:23.465Z,100456.92
2018-09-20T07:14:54.446Z,100451.70
2018-09-20T07:17:25.481Z,100459.00
2018-09-20T07:19:56.525Z,100465.52
2018-09-20T07:22:27.539Z,100467.48
2018-09-20T07:24:58.476Z,100474.63
2018-09-20T07:27:29.469Z,100469.72
2018-09-20T07:30:00.489Z,100462.56
2018-09-20T07:32:31.486Z,100463.88
2018-09-20T07:35:02.497Z,100465.61
2018-09-20T07:37:33.429Z,100465.72
2018-09-20T07:40:04.454Z,100463.36
2018-09-20T07:42:35.436Z,100456.17
2018-09-20T07:45:06.500Z,100455.69
2018-09-20T07:47:37.500Z,100457.03
2018-09-20T07:50:08.543Z,100453.98
2018-09-20T07:52:39.457Z,100454.58
2018-09-20T07:55:10.494Z,100455.48
2018-09-20T07:57:41.465Z,100450.60
2018-09-20T08:00:12.512Z,100450.65
2018-09-20T08:02:43.473Z,100453.30
2018-09-20T08:05:15.012Z,100455.14
2018-09-20T08:07:46.253Z,100455.30
2018-09-20T08:10:17.357Z,100449.78
2018-09-20T08:12:48.418Z,100451.58
2018-09-20T08:15:19.441Z,100441.78
2018-09-20T08:17:50.465Z,100449.34
2018-09-20T08:20:21.425Z,100446.97
2018-09-20T08:22:52.425Z,100449.31
2018-09-20T08:25:23.638Z,100443.19
2018-09-20T08:27:54.544Z,100435.48
2018-09-20T08:30:25.461Z,100441.38
2018-09-20T08:32:56.441Z,100447.52
2018-09-20T08:35:27.442Z,100444.44
2018-09-20T08:37:58.445Z,100439.98
2018-09-20T08:40:29.430Z,100446.45
2018-09-20T08:43:00.466Z,100444.10
2018-09-20T08:45:31.441Z,100437.96
2018-09-20T08:48:02.485Z,100431.66
2018-09-20T08:50:33.489Z,100435.81
2018-09-20T08:53:04.429Z,100433.24
2018-09-20T08:55:35.434Z,100430.95
2018-09-20T08:58:07.387Z,100432.81
2018-09-20T09:00:38.405Z,100420.39
2018-09-20T09:03:09.394Z,100430.78
2018-09-20T09:05:40.402Z,100422.29
2018-09-20T09:08:11.438Z,100426.29
2018-09-20T09:10:42.402Z,100419.86
2018-09-20T09:13:13.449Z,100426.65
2018-09-20T09:15:44.486Z,100426.34
2018-09-20T09:18:15.415Z,100422.36
2018-09-20T09:20:46.490Z,100418.08
2018-09-20T09:23:17.421Z,100412.56
2018-09-20T09:25:48.497Z,100415.09
2018-09-20T09:28:19.575Z,100409.23
2018-09-20T09:30:50.585Z,100420.34
2018-09-20T09:33:21.502Z,100418.43
2018-09-20T09:35:52.480Z,100413.84
2018-09-20T09:38:23.489Z,100411.79
2018-09-20T09:40:54.478Z,100415.83
2018-09-20T09:43:25.410Z,100406.39
2018-09-20T09:45:56.433Z,100405.37
2018-09-20T09:48:27.410Z,100398.05
2018-09-20T09:50:58.458Z,100402.02
2018-09-20T09:53:29.615Z,100398.73
2018-09-20T09:56:00.498Z,100392.63
2018-09-20T09:58:31.397Z,100399.72
2018-09-20T10:01:02.399Z,100406.65
2018-09-20T10:03:33.441Z,100400.17
2018-09-20T10:06:04.462Z,100399.13
2018-09-20T10:08:35.490Z,100396.22
2018-09-20T10:11:06.620Z,100394.86
2018-09-20T10:13:37.564Z,100384.20
2018-09-20T10:16:08.488Z,100382.98
2018-09-20T10:18:39.465Z,100378.12
2018-09-20T10:21:10.473Z,100369.47
2018-09-20T10:23:41.497Z,100366.06
2018-09-20T10:26:12.522Z,100359.02
2018-09-20T10:29:45.505Z,100350.16
2018-09-20T10:32:16.474Z,100353.01
2018-09-20T10:34:47.469Z,100353.61
2018-09-20T10:37:18.461Z,100351.41
2018-09-20T10:39:49.480Z,100349.16
2018-09-20T10:42:20.461Z,100347.27
2018-09-20T10:44:51.450Z,100347.50
2018-09-20T10:47:22.622Z,100342.40
2018-09-20T10:49:53.501Z,100333.84
2018-09-20T10:52:24.429Z,100330.35
2018-09-20T10:54:55.450Z,100332.27
2018-09-20T10:57:26.432Z,100329.67
2018-09-20T10:59:57.437Z,100316.57
2018-09-20T11:02:28.499Z,100325.36
2018-09-20T11:04:59.467Z,100320.88
2018-09-20T11:07:30.470Z,100316.56
2018-09-20T11:10:01.441Z,100315.11
2018-09-20T11:12:32.483Z,100311.30
2018-09-20T11:15:03.582Z,100297.85
2018-09-20T11:17:34.497Z,100300.48
2018-09-20T11:22:45.526Z,100288.50
2018-09-20T11:25:16.469Z,100292.31
2018-09-20T11:27:47.478Z,100291.13
2018-09-20T11:30:18.457Z,100287.13
2018-09-20T11:32:49.428Z,100273.39
2018-09-20T11:35:20.458Z,100271.46
2018-09-20T11:37:51.439Z,100278.84
2018-09-20T11:40:22.438Z,100271.66
2018-09-20T11:42:53.444Z,100259.97
2018-09-20T11:45:24.450Z,100261.42
2018-09-20T11:47:55.418Z,100260.27
2018-09-20T11:50:26.421Z,100257.10
2018-09-20T11:52:57.449Z,100251.63
2018-09-20T11:55:28.400Z,100244.44
2018-09-20T11:57:59.481Z,100247.34
2018-09-20T12:00:30.434Z,100244.70
2018-09-20T12:03:03.336Z,100244.16
2018-09-20T12:05:34.364Z,100240.16
2018-09-20T12:08:05.374Z,100246.75
2018-09-20T12:10:36.386Z,100235.45
2018-09-20T12:13:07.514Z,100234.55
2018-09-20T12:15:38.492Z,100231.88
2018-09-20T12:18:09.498Z,100221.86
2018-09-20T12:20:40.514Z,100222.72
2018-09-20T12:23:11.502Z,100212.19
2018-09-20T12:25:42.541Z,100194.22
2018-09-20T12:28:13.493Z,100199.14
2018-09-20T12:30:44.449Z,100191.20
2018-09-20T12:33:15.489Z,100195.25
2018-09-20T12:35:46.613Z,100188.41
2018-09-20T12:38:17.563Z,100189.54
2018-09-20T12:40:48.457Z,100189.53
2018-09-20T12:43:19.502Z,100186.80
2018-09-20T12:45:50.527Z,100180.48
2018-09-20T12:48:22.305Z,100180.97
2018-09-20T12:50:52.405Z,100177.12
2018-09-20T12:53:23.493Z,100185.66
2018-09-20T12:55:54.855Z,100181.84
2018-09-20T12:58:31.200Z,100176.01
2018-09-20T13:01:02.361Z,100185.18
2018-09-20T13:03:35.017Z,100175.47
2018-09-20T13:06:06.294Z,100166.48
2018-09-20T13:08:37.402Z,100161.52
2018-09-20T13:11:08.513Z,100165.13
2018-09-20T13:13:39.610Z,100171.75
2018-09-20T13:16:10.521Z,100156.34
2018-09-20T13:18:41.497Z,100163.80
2018-09-20T13:21:12.914Z,100161.48
2018-09-20T13:23:43.701Z,100146.50
2018-09-20T13:26:14.553Z,100150.61
2018-09-20T13:28:45.487Z,100154.69
2018-09-20T13:31:16.491Z,100153.36
2018-09-20T13:33:47.475Z,100161.82
2018-09-20T13:36:18.474Z,100147.30
2018-09-20T13:38:49.450Z,100139.09
2018-09-20T13:41:20.509Z,100143.48
2018-09-20T13:43:51.507Z,100139.70
2018-09-20T13:46:22.486Z,100145.03
2018-09-20T13:48:53.542Z,100135.48
2018-09-20T13:51:24.510Z,100136.67
2018-09-20T13:53:55.530Z,100137.69
2018-09-20T13:56:26.558Z,100136.10
2018-09-20T13:58:57.463Z,100130.91
2018-09-20T14:01:28.562Z,100126.00
2018-09-20T14:03:59.505Z,100125.14
2018-09-20T14:06:30.450Z,100117.77
2018-09-20T14:09:01.497Z,100129.14
2018-09-20T14:11:32.473Z,100118.45
2018-09-20T14:14:03.518Z,100117.17
2018-09-20T14:16:34.505Z,100123.09
2018-09-20T14:19:05.706Z,100110.80
2018-09-20T14:21:36.739Z,100105.53
2018-09-20T14:24:07.806Z,100105.24
2018-09-20T14:26:38.629Z,100110.00
2018-09-20T14:29:09.808Z,100105.17
2018-09-20T14:31:40.654Z,100106.83
2018-09-20T14:34:11.550Z,100098.61
2018-09-20T14:36:42.537Z,100102.89
2018-09-20T14:39:13.539Z,100091.69
2018-09-20T14:41:44.525Z,100081.98
2018-09-20T14:44:15.477Z,100084.77
2018-09-20T14:46:46.470Z,100090.30
2018-09-20T14:49:17.458Z,100084.16
2018-09-20T14:51:48.473Z,100081.59
2018-09-20T14:54:19.507Z,100082.44
2018-09-20T14:56:50.485Z,100077.72
2018-09-20T14:59:21.522Z,100073.01
2018-09-20T15:01:52.492Z,100072.10
2018-09-20T15:04:23.503Z,100064.29
2018-09-20T15:06:54.466Z,100064.30
2018-09-20T15:09:25.594Z,100061.01
2018-09-20T15:11:56.489Z,100058.95
2018-09-20T15:14:27.504Z,100057.39
2018-09-20T15:16:58.499Z,100059.58
2018-09-20T15:19:29.500Z,100053.97
2018-09-20T15:22:00.518Z,100049.22
2018-09-20T15:24:31.531Z,100051.61
2018-09-20T15:27:02.469Z,100041.93
2018-09-20T15:29:33.479Z,100046.63
2018-09-20T15:32:04.497Z,100045.07
2018-09-20T15:34:35.501Z,100042.43
2018-09-20T15:37:06.486Z,100045.72
2018-09-20T15:39:37.461Z,100044.75
2018-09-20T15:42:08.526Z,100045.33
2018-09-20T15:44:39.711Z,100048.13
2018-09-20T15:47:10.641Z,100045.98
2018-09-20T15:49:41.569Z,100039.88
2018-09-20T15:52:12.672Z,100034.52
2018-09-20T15:54:43.495Z,100030.62
2018-09-20T15:57:14.491Z,100032.79
2018-09-20T15:59:45.490Z,100024.91
2018-09-20T16:02:16.458Z,100021.95
2018-09-20T16:04:47.480Z,100027.27
2018-09-20T16:07:18.521Z,100031.21
2018-09-20T16:09:49.493Z,100032.95
2018-09-20T16:12:20.533Z,100031.37
2018-09-20T16:14:51.510Z,100021.33
2018-09-20T16:17:22.576Z,100022.05
2018-09-20T16:19:53.634Z,100015.81
2018-09-20T16:22:24.705Z,100007.41
2018-09-20T16:24:55.824Z,100011.95
2018-09-20T16:27:27.025Z,100005.84
2018-09-20T16:30:27.490Z,99996.98
2018-09-20T16:33:31.393Z,100001.38
2018-09-20T16:36:15.909Z,99998.42
2018-09-20T16:38:54.379Z,99992.15
2018-09-20T16:41:38.285Z,100000.39
2018-09-20T16:44:09.341Z,99997.49
2018-09-20T16:46:40.355Z,99991.94
2018-09-20T16:49:11.368Z,99995.15
2018-09-20T16:51:42.453Z,99987.77
2018-09-20T16:56:57.517Z,99983.97
2018-09-20T16:59:28.469Z,99976.99
2018-09-20T17:01:59.494Z,99976.34
2018-09-20T17:04:30.481Z,99975.28
2018-09-20T17:07:01.611Z,99977.45
2018-09-20T17:09:32.441Z,99968.49
2018-09-20T17:12:03.515Z,99980.30
2018-09-20T17:14:34.540Z,99979.60
2018-09-20T17:17:05.470Z,99978.59
2018-09-20T17:19:36.424Z,99979.26
2018-09-20T17:22:07.502Z,99983.57
2018-09-20T17:24:38.648Z,99981.20
2018-09-20T17:27:09.556Z,99976.86
2018-09-20T17:29:40.493Z,99984.47
2018-09-20T17:32:11.598Z,99980.50
2018-09-20T17:34:43.626Z,99981.58
2018-09-20T17:37:15.677Z,99980.25
2018-09-20T17:39:47.917Z,99974.36
2018-09-20T17:42:19.585Z,99974.36
2018-09-20T17:44:50.622Z,99978.67
2018-09-20T17:47:21.500Z,99975.77
2018-09-20T17:49:52.526Z,99978.22
2018-09-20T17:52:24.283Z,99968.54
2018-09-20T17:54:56.189Z,99972.92
2018-09-20T17:57:28.362Z,99970.21
2018-09-20T17:59:59.418Z,99970.53
2018-09-20T18:02:30.535Z,99961.33
2018-09-20T18:05:01.552Z,99962.84
2018-09-20T18:07:32.499Z,99961.42
2018-09-20T18:10:03.531Z,99959.11
2018-09-20T18:12:34.542Z,99968.44
2018-09-20T18:15:05.514Z,99955.87
2018-09-20T18:17:38.006Z,99960.30
2018-09-20T18:20:09.424Z,99957.50
2018-09-20T18:22:40.509Z,99965.81
2018-09-20T18:25:11.555Z,99962.73
2018-09-20T18:27:42.724Z,99965.91
2018-09-20T18:30:13.841Z,99960.28
2018-09-20T18:32:45.656Z,99966.15
2018-09-20T18:35:16.546Z,99957.59
2018-09-20T18:37:47.677Z,99955.63
2018-09-20T18:40:18.588Z,99956.37
2018-09-20T18:42:49.539Z,99957.27
2018-09-20T18:45:20.551Z,99956.84
2018-09-20T18:50:36.554Z,99951.88
2018-09-20T18:53:07.514Z,99957.22
2018-09-20T18:55:38.516Z,99953.08
2018-09-20T18:58:10.010Z,99948.57
2018-09-20T19:00:48.223Z,99958.16
2018-09-20T19:03:19.581Z,99958.26
2018-09-20T19:05:50.673Z,99958.58
2018-09-20T19:08:22.412Z,99951.41
2018-09-20T19:10:53.495Z,99953.77
2018-09-20T19:13:24.606Z,99948.64
2018-09-20T19:15:55.506Z,99940.75
2018-09-20T19:18:27.576Z,99942.30
2018-09-20T19:20:58.554Z,99937.15
2018-09-20T19:23:29.531Z,99940.05
2018-09-20T19:26:00.547Z,99937.84
2018-09-20T19:28:31.554Z,99937.10
2018-09-20T19:31:02.515Z,99936.30
2018-09-20T19:33:33.469Z,99927.02
2018-09-20T19:36:04.553Z,99929.07
2018-09-20T19:38:35.501Z,99928.05
2018-09-20T19:41:07.006Z,99932.16
2018-09-20T19:43:38.285Z,99927.85
2018-09-20T19:46:09.486Z,99929.91
2018-09-20T19:48:40.447Z,99927.05
2018-09-20T19:51:11.454Z,99928.17
2018-09-20T19:53:42.681Z,99913.28
2018-09-20T19:56:13.532Z,99923.34
2018-09-20T19:58:44.542Z,99918.23
2018-09-20T20:01:15.462Z,99918.84
2018-09-20T20:03:46.509Z,99915.98
2018-09-20T20:06:17.493Z,99909.97
2018-09-20T20:08:48.500Z,99908.66
2018-09-20T20:11:19.435Z,99905.38
2018-09-20T20:13:50.443Z,99910.06
2018-09-20T20:16:21.385Z,99901.23
2018-09-20T20:18:52.418Z,99901.19
2018-09-20T20:21:23.406Z,99901.41
2018-09-20T20:23:54.466Z,99899.30
2018-09-20T20:26:25.482Z,99899.64
2018-09-20T20:28:56.493Z,99892.44
2018-09-20T20:31:27.545Z,99890.47
2018-09-20T20:33:58.487Z,99892.04
2018-09-20T20:36:29.431Z,99901.45
2018-09-20T20:39:00.464Z,99895.66
2018-09-20T20:41:31.462Z,99891.48
2018-09-20T20:44:02.465Z,99890.75
2018-09-20T20:46:33.457Z,99890.97
2018-09-20T20:49:04.457Z,99884.85
2018-09-20T20:51:35.478Z,99889.66
2018-09-20T20:54:06.421Z,99888.93
2018-09-20T20:56:37.747Z,99889.17
2018-09-20T20:59:09.346Z,99889.41
2018-09-20T21:01:40.341Z,99893.45
2018-09-20T21:04:11.385Z,99894.17
2018-09-20T21:06:42.456Z,99891.08
2018-09-20T21:09:13.450Z,99886.45
2018-09-20T21:11:44.447Z,99881.44
2018-09-20T21:14:15.418Z,99877.38
2018-09-20T21:16:46.398Z,99874.81
2018-09-20T21:19:17.405Z,99875.64
2018-09-20T21:21:48.406Z,99875.95
2018-09-20T21:27:02.511Z,99881.80
2018-09-20T21:29:33.474Z,99870.75
2018-09-20T21:32:04.476Z,99867.02
2018-09-20T21:34:35.475Z,99866.33
2018-09-20T21:37:06.465Z,99867.81
2018-09-20T21:39:37.506Z,99861.80
2018-09-20T21:42:08.490Z,99856.97
2018-09-20T21:44:39.481Z,99851.28
2018-09-20T21:47:10.517Z,99860.04
2018-09-20T21:49:41.461Z,99853.95
2018-09-20T21:52:12.441Z,99853.73
2018-09-20T21:54:43.424Z,99846.56
2018-09-20T21:57:14.389Z,99841.94
2018-09-20T21:59:45.418Z,99841.31
2018-09-20T22:02:20.281Z,99838.30
2018-09-20T22:04:51.359Z,99835.30
2018-09-20T22:07:22.385Z,99826.16
2018-09-20T22:09:53.473Z,99828.22
2018-09-20T22:12:24.441Z,99828.13
2018-09-20T22:14:55.525Z,99820.28
2018-09-20T22:17:26.466Z,99815.83
2018-09-20T22:19:57.461Z,99815.32
2018-09-20T22:22:28.429Z,99819.98
2018-09-20T22:24:59.456Z,99816.95
2018-09-20T22:27:30.484Z,99817.05
2018-09-20T22:30:01.454Z,99812.30
2018-09-20T22:32:33.538Z,99811.47
2018-09-20T22:35:05.013Z,99806.94
2018-09-20T22:37:36.385Z,99809.62
2018-09-20T22:40:07.598Z,99800.20
2018-09-20T22:42:38.488Z,99796.93
2018-09-20T22:45:09.460Z,99789.08
2018-09-20T22:47:40.429Z,99794.36
2018-09-20T22:50:11.461Z,99793.66
2018-09-20T22:52:42.461Z,99783.12
2018-09-20T22:55:13.449Z,99786.73
2018-09-20T22:57:44.429Z,99781.77
2018-09-20T23:00:19.322Z,99783.00
2018-09-20T23:02:50.347Z,99782.70
2018-09-20T23:05:21.413Z,99777.47
2018-09-20T23:07:52.505Z,99778.73
2018-09-20T23:10:23.477Z,99773.81
2018-09-20T23:12:54.499Z,99785.68
2018-09-20T23:15:26.013Z,99774.45
2018-09-20T23:18:03.640Z,99774.89
2018-09-20T23:20:34.486Z,99771.56
2018-09-20T23:23:05.389Z,99772.77
2018-09-20T23:25:36.402Z,99765.86
2018-09-20T23:28:07.399Z,99764.61
2018-09-20T23:30:38.440Z,99767.45
2018-09-20T23:33:09.380Z,99766.06
2018-09-20T23:35:40.388Z,99762.67
2018-09-20T23:38:11.390Z,99760.31
2018-09-20T23:40:42.442Z,99761.75
2018-09-20T23:43:13.403Z,99757.13
2018-09-20T23:45:44.381Z,99754.03
2018-09-20T23:48:15.452Z,99758.42
2018-09-20T23:50:46.397Z,99754.27
2018-09-20T23:53:17.372Z,99754.70
2018-09-20T23:55:48.480Z,99755.30
2018-09-20T23:58:19.421Z,99750.42
